Time;durP1;ratioP1;P1;durP2;ratioP2;P2;SDS_P1;SDS_P2;PMS_P1;PMS_P2;Temp;Humidity;BMP_temperature;BMP_pressure;BME280_temperature;BME280_humidity;BME280_pressure;Samples;Min_cycle;Max_cycle;Signal;HPM_P1;HPM_P2
2022/05/09 00:02:08;;;;;;;;;;;;;;;10.42;88.27;99844.99;1671582;85;20506;-70
2022/05/09 00:04:37;;;;;;;;;;;;;;;10.43;88.01;99835.64;1671990;85;21134;-70
2022/05/09 00:07:07;;;;;;;;;;;;;;;10.45;87.84;99845.75;1668758;85;20087;-69
2022/05/09 00:09:38;;;;;;;;;;;;;;;10.47;87.79;99839.95;1642138;85;20434;-70
2022/05/09 00:12:11;;;;;;;;;;;;;;;10.47;87.51;99842.14;1668032;85;20080;-69
2022/05/09 00:14:39;;;;;;;;;;;;;;;10.46;87.38;99854.80;1643765;85;20497;-69
2022/05/09 00:17:12;;;;;;;;;;;;;;;10.41;87.62;99854.91;1647758;85;20228;-69
2022/05/09 00:19:38;;;;;;;;;;;;;;;10.36;88.07;99845.44;1665858;85;20149;-70
2022/05/09 00:22:04;;;;;;;;;;;;;;;10.35;88.59;99858.91;1663148;85;20183;-69
2022/05/09 00:24:35;;;;;;;;;;;;;;;10.37;88.78;99858.86;1667362;85;20125;-69
2022/05/09 00:27:05;;;;;;;;;;;;;;;10.38;88.77;99859.11;1646013;86;20089;-70
2022/05/09 00:29:35;;;;;;;;;;;;;;;10.38;89.17;99865.16;1662525;85;20089;-69
2022/05/09 00:32:10;;;;;;;;;;;;;;;10.45;89.71;99860.84;1669587;85;20108;-69
2022/05/09 00:34:39;;;;;;;;;;;;;;;10.58;89.86;99864.69;1663477;85;20423;-68
2022/05/09 00:37:09;;;;;;;;;;;;;;;10.71;89.30;99860.30;1638342;85;20144;-69
2022/05/09 00:39:43;;;;;;;;;;;;;;;10.79;88.91;99856.82;1644345;85;20128;-68
2022/05/09 00:42:10;;;;;;;;;;;;;;;10.85;88.69;99863.27;1651715;85;20163;-68
2022/05/09 00:44:38;;;;;;;;;;;;;;;10.89;88.27;99860.15;1676867;85;20148;-68
2022/05/09 00:47:05;;;;;;;;;;;;;;;10.94;88.10;99865.27;1668591;86;20148;-68
2022/05/09 00:49:40;;;;;;;;;;;;;;;10.94;87.80;99860.59;1664661;85;20101;-68
2022/05/09 00:52:16;;;;;;;;;;;;;;;10.94;87.84;99868.83;1670613;84;20441;-68
2022/05/09 00:54:56;;;;;;;;;;;;;;;10.92;87.85;99868.33;1641415;85;20127;-68
2022/05/09 00:57:29;;;;;;;;;;;;;;;10.88;88.01;99864.02;1669544;85;20087;-68
2022/05/09 01:00:04;;;;;;;;;;;;;;;10.88;88.14;99858.52;1643367;85;20145;-68
2022/05/09 01:02:32;;;;;;;;;;;;;;;10.87;88.38;99862.39;1643227;86;20442;-68
2022/05/09 01:05:01;;;;;;;;;;;;;;;10.88;88.75;99858.52;1618456;86;20117;-69
2022/05/09 01:07:44;;;;;;;;;;;;;;;10.94;88.84;99853.72;1659930;85;21185;-69
2022/05/09 01:10:02;;;;;;;;;;;;;;;11.01;88.99;99851.89;1664388;85;20491;-68
2022/05/09 01:12:35;;;;;;;;;;;;;;;11.07;89.06;99849.27;1675622;85;20466;-70
2022/05/09 01:15:06;;;;;;;;;;;;;;;11.13;89.17;99841.16;1652248;86;20103;-70
2022/05/09 01:17:39;;;;;;;;;;;;;;;11.18;89.50;99840.47;1665699;85;20131;-70
2022/05/09 01:20:06;;;;;;;;;;;;;;;11.23;89.59;99845.84;1665807;85;21271;-69
2022/05/09 01:22:34;;;;;;;;;;;;;;;11.30;89.81;99850.09;1664504;85;20100;-69
2022/05/09 01:25:05;;;;;;;;;;;;;;;11.34;89.82;99851.09;1673896;85;20113;-69
2022/05/09 01:30:30;;;;;;;;;;;;;;;11.42;89.93;99847.59;1661386;85;20149;-69
2022/05/09 01:33:06;;;;;;;;;;;;;;;11.47;89.94;99846.08;1670609;85;21181;-69
2022/05/09 01:35:38;;;;;;;;;;;;;;;11.52;90.00;99847.33;1665421;85;20085;-69
2022/05/09 01:38:30;;;;;;;;;;;;;;;11.55;89.88;99850.83;1668528;85;20135;-69
2022/05/09 01:41:01;;;;;;;;;;;;;;;11.59;89.94;99854.53;1666619;85;20176;-69
2022/05/09 01:43:38;;;;;;;;;;;;;;;11.60;90.07;99861.66;1664434;85;20172;-69
2022/05/09 01:46:18;;;;;;;;;;;;;;;11.62;89.93;99863.53;1617006;86;40560;-69
2022/05/09 01:51:35;;;;;;;;;;;;;;;11.66;89.64;99873.34;1663080;85;20437;-69
2022/05/09 01:54:05;;;;;;;;;;;;;;;11.66;89.58;99878.84;1666265;85;20140;-69
2022/05/09 01:56:35;;;;;;;;;;;;;;;11.67;89.48;99877.71;1644632;85;20451;-69
2022/05/09 01:59:03;;;;;;;;;;;;;;;11.68;89.43;99884.27;1644044;85;20535;-69
2022/05/09 02:01:32;;;;;;;;;;;;;;;11.69;89.49;99879.02;1669118;85;20143;-68
2022/05/09 02:04:06;;;;;;;;;;;;;;;11.69;89.36;99887.83;1664747;85;20466;-70
2022/05/09 02:06:33;;;;;;;;;;;;;;;11.66;89.30;99887.91;1669732;85;20156;-69
2022/05/09 02:09:08;;;;;;;;;;;;;;;11.68;89.33;99893.09;1643270;85;20428;-69
2022/05/09 02:11:44;;;;;;;;;;;;;;;11.68;89.36;99895.27;1668869;85;21184;-69
2022/05/09 02:14:13;;;;;;;;;;;;;;;11.68;89.34;99898.02;1659414;86;20147;-69
2022/05/09 02:16:46;;;;;;;;;;;;;;;11.68;89.47;99895.27;1667503;85;20088;-69
2022/05/09 02:19:14;;;;;;;;;;;;;;;11.65;89.65;99894.53;1667058;85;20700;-69
2022/05/09 02:21:40;;;;;;;;;;;;;;;11.65;89.76;99902.77;1667831;85;20155;-70
2022/05/09 02:24:12;;;;;;;;;;;;;;;11.62;89.94;99902.03;1644260;85;20589;-69
2022/05/09 02:26:37;;;;;;;;;;;;;;;11.61;90.22;99911.41;1665154;85;20091;-69
2022/05/09 02:29:07;;;;;;;;;;;;;;;11.61;90.32;99908.66;1664979;85;20150;-70
2022/05/09 02:31:34;;;;;;;;;;;;;;;11.62;90.41;99914.97;1668799;85;20103;-69
2022/05/09 02:34:08;;;;;;;;;;;;;;;11.63;90.41;99911.91;1664271;85;20151;-69
2022/05/09 02:36:35;;;;;;;;;;;;;;;11.63;90.48;99911.91;1667039;86;21173;-70
2022/05/09 02:39:05;;;;;;;;;;;;;;;11.63;90.62;99917.41;1641984;86;20570;-70
2022/05/09 02:41:32;;;;;;;;;;;;;;;11.62;90.59;99914.41;1665209;85;20088;-70
2022/05/09 02:43:59;;;;;;;;;;;;;;;11.62;90.67;99918.53;1668359;85;20147;-70
2022/05/09 02:46:43;;;;;;;;;;;;;;;11.63;90.73;99909.16;1668800;85;20123;-70
2022/05/09 02:49:02;;;;;;;;;;;;;;;11.65;90.78;99915.71;1678531;85;21185;-69
2022/05/09 02:51:32;;;;;;;;;;;;;;;11.65;90.84;99915.16;1644641;86;20448;-70
2022/05/09 02:54:04;;;;;;;;;;;;;;;11.66;90.96;99918.16;1667226;85;20132;-69
2022/05/09 02:56:33;;;;;;;;;;;;;;;11.68;91.04;99927.46;1666220;85;20103;-69
2022/05/09 02:59:00;;;;;;;;;;;;;;;11.68;91.08;99925.52;1663854;85;20177;-70
2022/05/09 03:01:33;;;;;;;;;;;;;;;11.70;91.12;99927.96;1667853;85;21743;-69
2022/05/09 03:07:00;;;;;;;;;;;;;;;11.73;91.12;99935.02;1668788;85;20121;-68
2022/05/09 03:09:18;;;;;;;;;;;;;;;11.75;91.20;99938.27;1664387;85;20160;-68
2022/05/09 03:11:48;;;;;;;;;;;;;;;11.76;91.18;99941.83;1664787;85;20256;-68
2022/05/09 03:14:19;;;;;;;;;;;;;;;11.76;91.19;99935.77;1666692;85;21831;-69
2022/05/09 03:16:47;;;;;;;;;;;;;;;11.76;91.40;99934.39;1670058;85;20472;-69
2022/05/09 03:19:17;;;;;;;;;;;;;;;11.74;91.61;99938.02;1666036;85;20119;-70
2022/05/09 03:21:47;;;;;;;;;;;;;;;11.73;91.77;99943.27;1664958;85;20192;-69
2022/05/09 03:24:19;;;;;;;;;;;;;;;11.73;91.96;99947.40;1666591;85;20420;-70
2022/05/09 03:26:44;;;;;;;;;;;;;;;11.75;92.25;99952.59;1667933;85;21721;-70
2022/05/09 03:29:11;;;;;;;;;;;;;;;11.74;92.54;99953.15;1668858;85;20097;-70
2022/05/09 03:31:37;;;;;;;;;;;;;;;11.74;92.68;99961.96;1667266;85;20188;-70
2022/05/09 03:34:09;;;;;;;;;;;;;;;11.74;92.79;99968.27;1667117;85;20162;-70
2022/05/09 03:36:36;;;;;;;;;;;;;;;11.75;93.13;99969.90;1667349;85;20173;-70
2022/05/09 03:39:06;;;;;;;;;;;;;;;11.75;93.62;99969.90;1663721;85;21150;-70
2022/05/09 03:41:41;;;;;;;;;;;;;;;11.77;94.06;99973.75;1639880;86;20116;-70
2022/05/09 03:44:07;;;;;;;;;;;;;;;11.79;95.04;99979.75;1664691;85;20442;-70
2022/05/09 03:46:41;;;;;;;;;;;;;;;11.79;95.03;99984.69;1668511;85;20159;-70
2022/05/09 03:49:11;;;;;;;;;;;;;;;11.82;95.19;99985.44;1667673;85;20127;-70
2022/05/09 03:51:41;;;;;;;;;;;;;;;11.88;95.65;99988.88;1666500;85;21777;-70
2022/05/09 03:54:15;;;;;;;;;;;;;;;11.92;95.56;99990.44;1672931;85;20462;-69
2022/05/09 03:56:45;;;;;;;;;;;;;;;11.95;95.75;99989.24;1671602;85;20076;-69
2022/05/09 03:59:13;;;;;;;;;;;;;;;11.99;96.13;99996.30;1683162;85;20936;-70
2022/05/09 04:01:42;;;;;;;;;;;;;;;12.00;96.31;99992.43;1667925;84;20213;-69
2022/05/09 04:04:14;;;;;;;;;;;;;;;12.02;96.06;99984.11;1662325;85;21228;-69
2022/05/09 04:06:43;;;;;;;;;;;;;;;12.09;96.35;99986.42;1669206;85;20075;-69
2022/05/09 04:09:11;;;;;;;;;;;;;;;12.14;96.23;99994.51;1664281;85;20156;-69
2022/05/09 04:11:47;;;;;;;;;;;;;;;12.20;95.98;99997.38;1639582;85;20103;-69
2022/05/09 04:14:12;;;;;;;;;;;;;;;12.26;95.61;99999.44;1667546;85;20124;-69
2022/05/09 04:16:50;;;;;;;;;;;;;;;12.30;95.04;100006.75;1668816;85;21915;-69
2022/05/09 04:19:23;;;;;;;;;;;;;;;12.34;94.81;100009.68;1665164;85;20432;-68
2022/05/09 04:21:57;;;;;;;;;;;;;;;12.38;94.77;100015.62;1633661;86;20088;-69
2022/05/09 04:24:26;;;;;;;;;;;;;;;12.43;94.67;100011.34;1664801;85;20166;-69
2022/05/09 04:27:01;;;;;;;;;;;;;;;12.47;94.19;100015.09;1665080;85;20250;-69
2022/05/09 04:29:28;;;;;;;;;;;;;;;12.54;94.06;100017.39;1665190;85;21780;-69
2022/05/09 04:31:54;;;;;;;;;;;;;;;12.60;94.01;100016.13;1666885;85;20091;-70
2022/05/09 04:34:21;;;;;;;;;;;;;;;12.69;93.42;100018.92;1668976;85;20076;-69
2022/05/09 04:36:53;;;;;;;;;;;;;;;12.76;92.96;100021.43;1668289;85;20089;-70
2022/05/09 04:39:28;;;;;;;;;;;;;;;12.83;92.59;100024.53;1666021;85;20483;-69
2022/05/09 04:41:56;;;;;;;;;;;;;;;12.90;92.15;100021.31;1629782;87;21111;-69
2022/05/09 04:44:23;;;;;;;;;;;;;;;12.97;91.17;100028.55;1633492;87;20152;-70
2022/05/09 04:46:49;;;;;;;;;;;;;;;13.00;90.59;100030.67;1668885;85;20089;-69
2022/05/09 04:49:20;;;;;;;;;;;;;;;13.04;90.92;100036.36;1616419;87;20127;-69
2022/05/09 04:51:46;;;;;;;;;;;;;;;13.10;90.84;100036.45;1663092;86;20121;-69
2022/05/09 04:54:16;;;;;;;;;;;;;;;13.15;90.38;100036.30;1652799;86;20723;-69
2022/05/09 04:56:49;;;;;;;;;;;;;;;13.20;90.14;100035.62;1645051;87;20123;-70
2022/05/09 04:59:18;;;;;;;;;;;;;;;13.32;89.91;100040.48;1642892;86;20160;-70
2022/05/09 05:01:46;;;;;;;;;;;;;;;13.38;89.20;100040.57;1642733;86;20095;-70
2022/05/09 05:04:16;;;;;;;;;;;;;;;13.45;89.04;100042.85;1618943;86;20180;-69
2022/05/09 05:06:52;;;;;;;;;;;;;;;13.57;87.88;100042.22;1624592;86;21188;-69
2022/05/09 05:09:23;;;;;;;;;;;;;;;13.67;86.49;100053.74;1626753;86;20158;-69
2022/05/09 05:11:54;;;;;;;;;;;;;;;13.76;86.50;100053.19;1653857;85;20122;-68
2022/05/09 05:14:23;;;;;;;;;;;;;;;13.89;85.41;100063.78;1621283;86;20134;-68
2022/05/09 05:17:01;;;;;;;;;;;;;;;14.01;85.32;100058.99;1640406;85;20152;-67
2022/05/09 05:19:31;;;;;;;;;;;;;;;14.16;84.19;100056.55;1649748;86;21200;-68
2022/05/09 05:22:03;;;;;;;;;;;;;;;14.26;83.25;100057.34;1623921;86;20149;-69
2022/05/09 05:24:51;;;;;;;;;;;;;;;14.34;82.62;100054.56;1654956;86;20134;-74
2022/05/09 05:27:07;;;;;;;;;;;;;;;14.43;82.05;100064.24;1638209;86;20100;-72
2022/05/09 05:29:41;;;;;;;;;;;;;;;14.52;82.50;100071.34;1646470;86;20442;-72
2022/05/09 05:32:31;;;;;;;;;;;;;;;14.67;81.51;100083.00;1645184;85;21347;-71
2022/05/09 05:34:48;;;;;;;;;;;;;;;14.76;81.27;100087.93;1648886;85;20172;-71
2022/05/09 05:37:18;;;;;;;;;;;;;;;14.80;80.47;100097.19;1669187;84;20467;-73
2022/05/09 05:39:48;;;;;;;;;;;;;;;14.83;79.79;100100.67;1653035;85;20153;-73
2022/05/09 05:42:19;;;;;;;;;;;;;;;14.86;78.24;100101.39;1640323;87;20105;-73
2022/05/09 05:44:50;;;;;;;;;;;;;;;14.83;78.33;100113.11;1628972;87;21203;-73
2022/05/09 05:47:18;;;;;;;;;;;;;;;14.76;78.03;100112.80;1628596;87;20140;-73
2022/05/09 05:49:47;;;;;;;;;;;;;;;14.64;77.91;100107.96;1651197;85;20430;-77
2022/05/09 05:52:15;;;;;;;;;;;;;;;14.57;78.18;100109.60;1662323;84;20198;-74
2022/05/09 05:54:52;;;;;;;;;;;;;;;14.52;77.79;100116.92;1645539;84;20088;-84
2022/05/09 05:57:24;;;;;;;;;;;;;;;14.50;78.13;100116.44;1654676;84;21187;-70
2022/05/09 05:59:52;;;;;;;;;;;;;;;14.45;77.91;100119.38;1648630;85;20178;-73
2022/05/09 06:02:19;;;;;;;;;;;;;;;14.46;79.32;100112.70;1639340;85;20256;-84
2022/05/09 06:04:46;;;;;;;;;;;;;;;14.59;79.59;100122.52;1644025;84;20234;-69
2022/05/09 06:07:13;;;;;;;;;;;;;;;14.75;79.09;100122.23;1642471;84;20200;-75
2022/05/09 06:09:41;;;;;;;;;;;;;;;14.95;79.04;100124.29;1633365;86;21268;-76
2022/05/09 06:12:08;;;;;;;;;;;;;;;15.15;77.17;100129.63;1658807;85;20487;-73
2022/05/09 06:14:36;;;;;;;;;;;;;;;15.27;75.81;100127.55;1666108;85;20170;-76
2022/05/09 06:17:04;;;;;;;;;;;;;;;15.30;74.77;100135.18;1664514;84;20651;-76
2022/05/09 06:19:30;;;;;;;;;;;;;;;15.42;75.37;100143.02;1659593;85;20176;-78
2022/05/09 06:21:58;;;;;;;;;;;;;;;15.50;73.66;100140.77;1695470;84;21168;-78
2022/05/09 06:24:24;;;;;;;;;;;;;;;15.49;72.34;100146.06;1663835;85;20259;-85
2022/05/09 06:26:51;;;;;;;;;;;;;;;15.45;72.09;100140.96;1669522;85;20189;-82
2022/05/09 06:29:18;;;;;;;;;;;;;;;15.41;71.07;100135.05;1670955;85;20144;-75
2022/05/09 06:31:45;;;;;;;;;;;;;;;15.37;71.01;100134.90;1671733;85;20215;-84
2022/05/09 06:34:13;;;;;;;;;;;;;;;15.48;70.41;100142.25;1659443;85;20429;-73
2022/05/09 06:36:40;;;;;;;;;;;;;;;15.55;69.76;100141.73;1667604;85;20200;-75
2022/05/09 06:39:08;;;;;;;;;;;;;;;15.69;68.97;100144.48;1660460;84;20186;-75
2022/05/09 06:41:34;;;;;;;;;;;;;;;15.80;67.88;100139.38;1670398;85;20537;-74
2022/05/09 06:44:00;;;;;;;;;;;;;;;15.83;67.66;100144.23;1677188;85;20183;-73
2022/05/09 06:46:28;;;;;;;;;;;;;;;15.84;67.69;100148.63;1650959;84;21168;-74
2022/05/09 06:48:54;;;;;;;;;;;;;;;15.91;67.96;100144.75;1684953;84;20302;-73
2022/05/09 06:51:21;;;;;;;;;;;;;;;16.05;66.35;100141.72;1668636;84;20306;-74
2022/05/09 06:53:50;;;;;;;;;;;;;;;16.20;64.30;100146.63;1673488;83;20171;-74
2022/05/09 06:56:16;;;;;;;;;;;;;;;16.36;64.10;100146.81;1661855;84;20519;-74
2022/05/09 06:58:43;;;;;;;;;;;;;;;16.48;62.64;100142.14;1665881;83;21206;-74
2022/05/09 07:01:15;;;;;;;;;;;;;;;16.63;63.92;100146.23;1664296;84;20229;-82
2022/05/09 07:03:42;;;;;;;;;;;;;;;16.78;60.82;100144.78;1667994;84;20164;-76
2022/05/09 07:06:09;;;;;;;;;;;;;;;16.82;59.62;100154.03;1708759;83;21083;-78
2022/05/09 07:08:36;;;;;;;;;;;;;;;16.77;59.39;100148.70;1667842;84;20144;-76
2022/05/09 07:11:02;;;;;;;;;;;;;;;16.75;59.86;100164.90;1666337;85;21251;-79
2022/05/09 07:13:29;;;;;;;;;;;;;;;16.67;56.28;100160.25;1657715;84;20226;-76
2022/05/09 07:15:57;;;;;;;;;;;;;;;16.46;57.61;100174.11;1669557;84;20220;-76
2022/05/09 07:18:27;;;;;;;;;;;;;;;16.21;57.39;100169.02;1665605;84;20172;-77
2022/05/09 07:20:53;;;;;;;;;;;;;;;16.05;58.39;100176.34;1665778;83;20418;-77
2022/05/09 07:23:19;;;;;;;;;;;;;;;16.03;59.47;100167.56;1674774;84;21188;-78
2022/05/09 07:25:46;;;;;;;;;;;;;;;16.12;59.98;100168.30;1662232;84;20148;-77
2022/05/09 07:28:16;;;;;;;;;;;;;;;16.26;60.34;100173.55;1680662;84;20517;-79
2022/05/09 07:30:42;;;;;;;;;;;;;;;16.48;60.36;100175.39;1667829;84;20233;-76
2022/05/09 07:33:11;;;;;;;;;;;;;;;16.74;57.80;100172.41;1661389;83;20174;-71
2022/05/09 07:35:37;;;;;;;;;;;;;;;16.95;57.33;100176.48;1663971;83;21071;-74
2022/05/09 07:38:05;;;;;;;;;;;;;;;17.11;54.59;100171.89;1667077;85;20500;-78
2022/05/09 07:40:32;;;;;;;;;;;;;;;17.12;52.92;100163.00;1682452;84;20204;-84
2022/05/09 07:42:59;;;;;;;;;;;;;;;17.12;54.78;100174.91;1687279;83;20183;-79
2022/05/09 07:45:25;;;;;;;;;;;;;;;17.21;54.22;100158.73;1690147;83;20131;-80
2022/05/09 07:47:52;;;;;;;;;;;;;;;17.28;53.55;100170.07;1673289;84;21809;-90
2022/05/09 07:50:19;;;;;;;;;;;;;;;17.25;53.74;100173.54;1692293;84;20139;-81
2022/05/09 07:52:46;;;;;;;;;;;;;;;17.17;53.55;100189.13;1660294;82;20189;-79
2022/05/09 07:55:15;;;;;;;;;;;;;;;17.26;52.27;100179.32;1655922;84;20635;-82
2022/05/09 07:57:42;;;;;;;;;;;;;;;17.35;50.49;100175.25;1669542;84;20209;-79
2022/05/09 08:00:10;;;;;;;;;;;;;;;17.61;52.23;100174.91;1671923;82;22051;-79
2022/05/09 08:02:42;;;;;;;;;;;;;;;18.02;51.08;100182.75;1701086;82;20181;-82
2022/05/09 08:05:10;;;;;;;;;;;;;;;18.44;48.51;100182.64;1654422;82;20511;-78
2022/05/09 08:07:38;;;;;;;;;;;;;;;18.78;48.16;100184.59;1649567;85;20208;-85
2022/05/09 08:10:07;;;;;;;;;;;;;;;19.04;48.10;100184.92;1647825;85;20178;-75
2022/05/09 08:12:33;;;;;;;;;;;;;;;19.27;47.86;100186.48;1658344;84;21790;-74
2022/05/09 08:14:59;;;;;;;;;;;;;;;19.32;45.80;100183.44;1685447;84;20088;-78
2022/05/09 08:17:28;;;;;;;;;;;;;;;19.44;47.27;100183.93;1685110;84;20156;-70
2022/05/09 08:19:55;;;;;;;;;;;;;;;19.61;45.25;100186.38;1687067;83;20155;-71
2022/05/09 08:22:22;;;;;;;;;;;;;;;19.75;44.48;100181.12;1681320;84;20167;-70
2022/05/09 08:24:48;;;;;;;;;;;;;;;19.90;44.90;100184.25;1683525;83;21231;-76
2022/05/09 08:27:15;;;;;;;;;;;;;;;20.02;44.84;100181.34;1686453;83;20457;-73
2022/05/09 08:29:41;;;;;;;;;;;;;;;19.92;43.61;100183.30;1694710;83;20166;-75
2022/05/09 08:32:07;;;;;;;;;;;;;;;19.65;43.09;100187.25;1671177;84;20146;-71
2022/05/09 08:34:34;;;;;;;;;;;;;;;19.35;42.06;100190.27;1695812;83;20142;-81
2022/05/09 08:37:01;;;;;;;;;;;;;;;19.24;42.31;100196.13;1695336;83;21874;-74
2022/05/09 08:39:27;;;;;;;;;;;;;;;19.43;43.33;100192.87;1667136;85;20155;-80
2022/05/09 08:42:00;;;;;;;;;;;;;;;19.86;44.06;100188.92;1659988;82;20153;-78
2022/05/09 08:44:45;;;;;;;;;;;;;;;20.29;42.27;100194.27;1636843;85;20632;-79
2022/05/09 08:47:38;;;;;;;;;;;;;;;20.66;40.58;100190.50;1665396;84;20198;-77
2022/05/09 08:50:29;;;;;;;;;;;;;;;20.91;40.29;100192.95;1685962;82;21274;-82
2022/05/09 08:53:06;;;;;;;;;;;;;;;20.74;39.39;100193.66;1689033;83;20153;-73
2022/05/09 08:55:38;;;;;;;;;;;;;;;20.20;39.92;100204.84;1628966;85;20197;-83
2022/05/09 08:58:12;;;;;;;;;;;;;;;20.00;40.27;100209.57;1653377;86;20549;-82
2022/05/09 09:00:39;;;;;;;;;;;;;;;20.07;39.89;100201.38;1647887;85;20098;-83
2022/05/09 09:03:25;;;;;;;;;;;;;;;20.43;40.68;100205.77;1634138;84;21062;-83
2022/05/09 09:05:54;;;;;;;;;;;;;;;20.82;38.82;100195.16;1661481;85;20121;-83
2022/05/09 09:08:37;;;;;;;;;;;;;;;21.36;36.63;100195.00;1648809;85;20097;-84
2022/05/09 09:11:15;;;;;;;;;;;;;;;21.65;35.81;100190.09;1669313;84;20073;-87
2022/05/09 09:14:00;;;;;;;;;;;;;;;21.78;38.51;100205.25;1689966;84;20154;-83
2022/05/09 09:16:39;;;;;;;;;;;;;;;21.88;37.50;100182.25;1684685;82;21146;-83
2022/05/09 09:19:09;;;;;;;;;;;;;;;21.99;35.91;100199.38;1697036;82;20202;-81
2022/05/09 09:21:55;;;;;;;;;;;;;;;22.00;36.20;100202.38;1698975;82;20123;-81
2022/05/09 09:24:35;;;;;;;;;;;;;;;22.05;36.26;100200.69;1610736;82;20137;-87
2022/05/09 09:27:37;;;;;;;;;;;;;;;22.10;35.65;100192.57;1698518;84;20158;-83
2022/05/09 09:30:10;;;;;;;;;;;;;;;21.80;35.93;100198.70;1696128;83;21264;-85
2022/05/09 09:32:34;;;;;;;;;;;;;;;21.19;35.82;100212.22;1698325;84;20090;-79
2022/05/09 09:35:14;;;;;;;;;;;;;;;20.82;36.88;100212.70;1699409;83;20100;-75
2022/05/09 09:37:48;;;;;;;;;;;;;;;20.93;36.72;100191.98;1698800;82;20161;-74
2022/05/09 09:40:15;;;;;;;;;;;;;;;21.35;37.18;100207.36;1704631;83;20476;-74
2022/05/09 09:42:41;;;;;;;;;;;;;;;21.83;36.25;100207.14;1697278;82;21156;-82
2022/05/09 09:45:33;;;;;;;;;;;;;;;22.04;34.64;100212.25;1678623;84;20460;-81
2022/05/09 09:48:08;;;;;;;;;;;;;;;22.17;33.35;100201.06;1667403;84;20123;-75
2022/05/09 09:50:35;;;;;;;;;;;;;;;22.27;33.42;100205.19;1689459;84;20146;-85
2022/05/09 09:53:02;;;;;;;;;;;;;;;22.20;31.44;100212.89;1690735;83;20096;-78
2022/05/09 09:55:32;;;;;;;;;;;;;;;22.08;33.93;100213.92;1676346;84;21167;-81
2022/05/09 09:58:02;;;;;;;;;;;;;;;21.81;33.36;100217.08;1692099;83;20086;-75
2022/05/09 10:00:31;;;;;;;;;;;;;;;21.38;34.62;100214.37;1642630;83;20146;-72
2022/05/09 10:03:10;;;;;;;;;;;;;;;21.31;36.27;100207.30;1695078;83;20450;-76
2022/05/09 10:05:37;;;;;;;;;;;;;;;21.28;35.60;100222.00;1664998;83;20114;-81
2022/05/09 10:08:30;;;;;;;;;;;;;;;20.95;35.05;100218.35;1689560;83;21776;-77
2022/05/09 10:11:02;;;;;;;;;;;;;;;20.85;36.18;100223.13;1680172;83;20127;-72
2022/05/09 10:13:37;;;;;;;;;;;;;;;20.99;34.98;100219.81;1691108;83;20148;-86
2022/05/09 10:16:15;;;;;;;;;;;;;;;21.33;35.58;100213.31;1688775;83;20680;-82
2022/05/09 10:18:42;;;;;;;;;;;;;;;21.66;31.49;100207.06;1691206;82;20149;-82
2022/05/09 10:24:47;;;;;;;;;;;;;;;21.98;32.68;100205.34;1667162;83;21130;-85
2022/05/09 10:26:35;;;;;;;;;;;;;;;22.82;33.93;100203.51;1666661;83;20179;-82
2022/05/09 10:29:07;;;;;;;;;;;;;;;23.06;30.49;100192.38;1661847;83;20693;-80
2022/05/09 10:31:41;;;;;;;;;;;;;;;23.19;31.70;100199.87;1683673;82;20152;-77
2022/05/09 10:34:17;;;;;;;;;;;;;;;23.23;29.89;100203.52;1664246;84;21164;-74
2022/05/09 10:36:48;;;;;;;;;;;;;;;23.36;30.27;100193.64;1662861;82;20100;-72
2022/05/09 10:39:23;;;;;;;;;;;;;;;23.51;29.78;100195.38;1663899;83;20152;-73
2022/05/09 10:41:52;;;;;;;;;;;;;;;23.64;27.96;100179.10;1658548;85;21437;-77
2022/05/09 10:44:43;;;;;;;;;;;;;;;23.40;28.81;100190.28;1655607;85;20258;-76
2022/05/09 10:47:17;;;;;;;;;;;;;;;23.29;29.32;100190.77;1624479;88;21175;-77
2022/05/09 10:50:01;;;;;;;;;;;;;;;23.50;28.69;100190.97;1659490;85;20907;-76
2022/05/09 10:52:43;;;;;;;;;;;;;;;23.73;28.26;100178.14;1655978;85;20550;-75
2022/05/09 10:55:22;;;;;;;;;;;;;;;23.90;29.62;100183.07;1652703;85;20282;-85
2022/05/09 10:57:56;;;;;;;;;;;;;;;23.89;28.79;100184.27;1628990;85;20226;-79
2022/05/09 11:00:25;;;;;;;;;;;;;;;23.39;27.12;100183.87;1654358;85;21040;-74
2022/05/09 11:03:13;;;;;;;;;;;;;;;22.86;28.01;100179.16;1659528;85;20095;-71
2022/05/09 11:05:48;;;;;;;;;;;;;;;22.79;28.30;100174.08;1625589;87;20170;-72
2022/05/09 11:08:30;;;;;;;;;;;;;;;22.87;26.97;100173.77;1642230;85;20155;-71
2022/05/09 11:11:01;;;;;;;;;;;;;;;23.03;27.24;100172.95;1586362;88;20499;-73
2022/05/09 11:13:43;;;;;;;;;;;;;;;23.10;26.55;100177.01;1656844;84;21106;-72
2022/05/09 11:16:13;;;;;;;;;;;;;;;23.06;28.76;100172.77;1644095;85;20153;-70
2022/05/09 11:18:55;;;;;;;;;;;;;;;22.86;27.58;100179.16;1609509;88;20180;-70
2022/05/09 11:21:47;;;;;;;;;;;;;;;22.55;27.32;100176.16;1599230;87;20601;-70
2022/05/09 11:24:32;;;;;;;;;;;;;;;22.20;28.06;100179.34;1621996;86;20187;-69
2022/05/09 11:27:31;;;;;;;;;;;;;;;22.00;27.45;100174.43;1635939;87;20560;-70
2022/05/09 11:30:14;;;;;;;;;;;;;;;22.25;27.84;100183.79;1671009;84;20162;-71
2022/05/09 11:32:42;;;;;;;;;;;;;;;22.51;27.62;100165.55;1681638;83;20217;-72
2022/05/09 11:35:31;;;;;;;;;;;;;;;22.66;26.43;100163.70;1672543;84;20210;-71
2022/05/09 11:38:26;;;;;;;;;;;;;;;22.63;26.42;100175.06;1675286;84;20171;-76
2022/05/09 11:41:16;;;;;;;;;;;;;;;22.62;27.17;100183.84;1672964;81;21564;-74
2022/05/09 11:43:50;;;;;;;;;;;;;;;22.64;26.89;100181.47;1664446;82;20481;-72
2022/05/09 11:46:41;;;;;;;;;;;;;;;22.87;28.23;100172.37;1663147;83;20442;-77
2022/05/09 11:49:27;;;;;;;;;;;;;;;23.15;26.21;100169.63;1668453;82;20177;-78
2022/05/09 11:51:55;;;;;;;;;;;;;;;23.24;26.52;100168.12;1688582;84;20211;-74
2022/05/09 11:54:28;;;;;;;;;;;;;;;23.41;26.71;100166.67;1661987;84;20626;-75
2022/05/09 11:56:59;;;;;;;;;;;;;;;23.65;27.07;100168.91;1679218;83;20132;-74
2022/05/09 11:59:27;;;;;;;;;;;;;;;23.87;23.27;100176.03;1648350;84;20231;-72
2022/05/09 12:02:06;;;;;;;;;;;;;;;24.02;23.55;100163.72;1681369;83;20168;-72
2022/05/09 12:04:41;;;;;;;;;;;;;;;23.95;22.19;100169.28;1680217;84;20154;-72
2022/05/09 12:07:30;;;;;;;;;;;;;;;23.86;20.58;100159.81;1662705;84;21175;-82
2022/05/09 12:10:15;;;;;;;;;;;;;;;23.86;22.57;100160.41;1690275;83;20171;-74
2022/05/09 12:12:46;;;;;;;;;;;;;;;23.97;21.89;100157.88;1687398;82;20165;-80
2022/05/09 12:15:20;;;;;;;;;;;;;;;24.22;20.04;100160.83;1687696;84;20088;-76
2022/05/09 12:17:50;;;;;;;;;;;;;;;24.16;19.58;100160.20;1667894;82;20153;-75
2022/05/09 12:20:26;;;;;;;;;;;;;;;24.03;21.81;100163.92;1677328;82;21119;-74
2022/05/09 12:22:56;;;;;;;;;;;;;;;24.08;22.18;100152.34;1675354;84;20192;-76
2022/05/09 12:25:42;;;;;;;;;;;;;;;24.21;22.26;100163.43;1688451;84;20097;-71
2022/05/09 12:28:22;;;;;;;;;;;;;;;24.22;21.65;100152.41;1694764;83;20097;-80
2022/05/09 12:31:04;;;;;;;;;;;;;;;24.24;20.49;100150.02;1695309;83;20149;-72
2022/05/09 12:33:48;;;;;;;;;;;;;;;24.08;19.24;100147.33;1677886;84;21173;-73
2022/05/09 12:36:20;;;;;;;;;;;;;;;23.92;20.12;100140.62;1687817;84;20102;-79
2022/05/09 12:38:51;;;;;;;;;;;;;;;23.69;18.23;100141.67;1691063;84;20089;-77
2022/05/09 12:41:24;;;;;;;;;;;;;;;23.56;21.02;100146.61;1696237;84;20093;-79
2022/05/09 12:43:57;;;;;;;;;;;;;;;23.74;22.07;100148.92;1694053;83;20181;-79
2022/05/09 12:46:32;;;;;;;;;;;;;;;24.02;21.51;100135.67;1690138;84;21165;-80
2022/05/09 12:48:59;;;;;;;;;;;;;;;24.35;21.34;100142.45;1693924;83;20133;-82
2022/05/09 12:51:26;;;;;;;;;;;;;;;24.69;20.46;100137.97;1689028;84;20165;-79
2022/05/09 12:53:53;;;;;;;;;;;;;;;25.00;21.21;100145.67;1691019;83;20089;-80
2022/05/09 12:56:21;;;;;;;;;;;;;;;25.29;20.07;100142.89;1690174;83;20432;-84
2022/05/09 12:58:50;;;;;;;;;;;;;;;25.31;19.54;100134.87;1683841;83;21872;-84
2022/05/09 13:01:19;;;;;;;;;;;;;;;25.22;19.84;100143.69;1672799;83;20105;-79
2022/05/09 13:03:50;;;;;;;;;;;;;;;25.20;20.21;100143.29;1687268;83;20200;-75
2022/05/09 13:06:18;;;;;;;;;;;;;;;25.14;20.52;100134.25;1683896;84;20165;-78
2022/05/09 13:08:46;;;;;;;;;;;;;;;25.28;20.22;100134.27;1687687;83;20188;-85
2022/05/09 13:11:15;;;;;;;;;;;;;;;25.40;20.43;100135.87;1688199;83;21112;-84
2022/05/09 13:13:48;;;;;;;;;;;;;;;25.48;20.45;100136.84;1684463;83;20091;-77
2022/05/09 13:16:21;;;;;;;;;;;;;;;25.66;19.89;100128.43;1678599;83;20463;-74